Time;durP1;ratioP1;P1;durP2;ratioP2;P2;SDS_P1;SDS_P2;PMS_P1;PMS_P2;Temp;Humidity;BMP_temperature;BMP_pressure;BME280_temperature;BME280_humidity;BME280_pressure;Samples;Min_cycle;Max_cycle;Signal;HPM_P1;HPM_P2
2022/10/19 00:01:05;;;;;;;27.63;15.67;;;;;;;;;;6169369;28;20049;-74
2022/10/19 00:04:05;;;;;;;22.05;13.30;;;;;;;;;;6170165;28;20037;-74
2022/10/19 00:07:05;;;;;;;21.23;12.23;;;;;;;;;;6163776;28;20367;-74
2022/10/19 00:10:06;;;;;;;17.23;11.67;;;;;;;;;;6165882;28;20018;-74
2022/10/19 00:13:06;;;;;;;18.93;11.47;;;;;;;;;;6172767;28;20399;-73
2022/10/19 00:16:14;;;;;;;16.77;11.17;;;;;;;;;;6171889;28;20101;-73
2022/10/19 00:19:16;;;;;;;16.45;9.75;;;;;;;;;;6153372;28;20029;-73
2022/10/19 00:22:16;;;;;;;21.40;12.73;;;;;;;;;;6172522;28;20387;-74
2022/10/19 00:25:16;;;;;;;22.80;12.70;;;;;;;;;;6171512;28;20038;-73
2022/10/19 00:28:16;;;;;;;24.10;14.20;;;;;;;;;;6174179;28;20034;-73
2022/10/19 00:31:17;;;;;;;26.05;14.70;;;;;;;;;;6174848;28;20450;-74
2022/10/19 00:34:17;;;;;;;32.70;17.27;;;;;;;;;;6172205;28;20197;-74
2022/10/19 00:37:17;;;;;;;35.10;18.17;;;;;;;;;;6173636;28;20403;-74
2022/10/19 00:40:17;;;;;;;32.70;17.10;;;;;;;;;;6173257;28;20069;-74
2022/10/19 00:43:18;;;;;;;33.80;16.73;;;;;;;;;;6170705;28;20109;-73
2022/10/19 00:46:18;;;;;;;32.88;17.50;;;;;;;;;;6176642;28;20162;-74
2022/10/19 00:49:23;;;;;;;25.20;14.93;;;;;;;;;;6172876;28;20034;-74
2022/10/19 00:52:24;;;;;;;26.65;15.40;;;;;;;;;;6168340;28;20035;-73
2022/10/19 00:55:24;;;;;;;30.10;14.67;;;;;;;;;;6154229;28;20101;-73
2022/10/19 00:58:24;;;;;;;29.83;14.43;;;;;;;;;;6172975;28;20032;-73
2022/10/19 01:01:25;;;;;;;28.20;15.63;;;;;;;;;;6155248;28;20101;-73
2022/10/19 01:04:26;;;;;;;34.57;16.07;;;;;;;;;;6163730;28;20023;-71
2022/10/19 01:07:27;;;;;;;38.27;16.27;;;;;;;;;;6174991;28;20304;-72
2022/10/19 01:10:37;;;;;;;32.03;15.30;;;;;;;;;;6179224;28;20348;-72
2022/10/19 01:13:45;;;;;;;36.33;15.88;;;;;;;;;;6184487;28;20042;-72
2022/10/19 01:16:48;;;;;;;40.35;18.02;;;;;;;;;;6172003;28;20019;-72
2022/10/19 01:19:51;;;;;;;37.00;19.52;;;;;;;;;;6171304;28;20034;-73
2022/10/19 01:23:10;;;;;;;36.58;18.73;;;;;;;;;;6184791;28;20546;-72
2022/10/19 01:26:19;;;;;;;31.20;16.55;;;;;;;;;;6171093;28;20390;-72
2022/10/19 01:29:37;;;;;;;34.05;16.58;;;;;;;;;;6170150;28;20022;-72
2022/10/19 01:32:38;;;;;;;26.73;14.45;;;;;;;;;;6171347;28;20522;-72
2022/10/19 01:35:43;;;;;;;36.78;15.07;;;;;;;;;;6175667;28;20018;-73
2022/10/19 01:38:49;;;;;;;36.45;15.95;;;;;;;;;;6176356;28;20014;-73
2022/10/19 01:41:56;;;;;;;30.13;14.43;;;;;;;;;;6182105;28;20054;-73
2022/10/19 01:44:56;;;;;;;29.13;14.55;;;;;;;;;;6183088;28;20098;-73
2022/10/19 01:48:25;;;;;;;28.65;14.98;;;;;;;;;;6175230;28;20741;-73
2022/10/19 01:51:29;;;;;;;30.23;14.52;;;;;;;;;;6166787;28;20042;-72
2022/10/19 01:54:33;;;;;;;30.20;14.75;;;;;;;;;;6175056;28;20018;-72
2022/10/19 01:57:35;;;;;;;27.27;14.20;;;;;;;;;;6174727;28;20041;-72
2022/10/19 02:00:37;;;;;;;30.13;14.75;;;;;;;;;;6175167;28;20077;-72
2022/10/19 02:03:38;;;;;;;31.40;17.08;;;;;;;;;;6176418;28;20029;-73
2022/10/19 02:06:38;;;;;;;29.13;15.03;;;;;;;;;;6165332;28;20031;-73
2022/10/19 02:09:38;;;;;;;28.10;16.33;;;;;;;;;;6169919;28;20034;-73
2022/10/19 02:12:39;;;;;;;27.23;14.57;;;;;;;;;;6163710;28;20023;-72
2022/10/19 02:15:42;;;;;;;33.63;16.77;;;;;;;;;;6174705;28;20015;-72
2022/10/19 02:18:47;;;;;;;28.95;16.17;;;;;;;;;;6175212;28;20019;-73
2022/10/19 02:21:48;;;;;;;23.02;14.10;;;;;;;;;;6175833;28;20035;-73
2022/10/19 02:24:48;;;;;;;31.95;15.63;;;;;;;;;;6174730;28;20057;-73
2022/10/19 02:27:48;;;;;;;32.80;15.50;;;;;;;;;;6175899;28;20090;-73
2022/10/19 02:30:48;;;;;;;28.73;14.48;;;;;;;;;;6175021;28;20030;-73
2022/10/19 02:33:48;;;;;;;21.80;11.80;;;;;;;;;;6180903;28;20475;-73
2022/10/19 02:36:49;;;;;;;23.63;14.00;;;;;;;;;;6181842;28;20030;-73
2022/10/19 02:39:49;;;;;;;28.37;13.03;;;;;;;;;;6158726;28;20104;-73
2022/10/19 02:42:53;;;;;;;24.67;12.97;;;;;;;;;;6153054;28;20030;-73
2022/10/19 02:45:58;;;;;;;31.58;13.70;;;;;;;;;;6157623;28;20047;-73
2022/10/19 02:48:59;;;;;;;35.78;15.10;;;;;;;;;;6162739;28;20050;-73
2022/10/19 02:52:02;;;;;;;26.45;12.75;;;;;;;;;;6173323;28;20475;-72
2022/10/19 02:55:02;;;;;;;27.25;13.15;;;;;;;;;;6157059;28;20045;-72
2022/10/19 02:58:02;;;;;;;28.52;14.38;;;;;;;;;;6172298;28;20031;-73
2022/10/19 03:01:02;;;;;;;24.35;12.30;;;;;;;;;;6174674;28;20021;-73
2022/10/19 03:04:03;;;;;;;26.10;12.90;;;;;;;;;;6176104;28;20058;-73
2022/10/19 03:07:03;;;;;;;23.50;11.50;;;;;;;;;;6167769;28;20038;-73
2022/10/19 03:10:03;;;;;;;22.57;11.47;;;;;;;;;;6168072;28;20545;-73
2022/10/19 03:13:03;;;;;;;17.07;9.37;;;;;;;;;;6156889;28;20026;-73
2022/10/19 03:16:10;;;;;;;19.05;10.00;;;;;;;;;;6173521;28;20386;-73
2022/10/19 03:19:10;;;;;;;21.45;10.23;;;;;;;;;;6173922;28;20019;-73
2022/10/19 03:22:11;;;;;;;16.17;9.85;;;;;;;;;;6176388;28;20029;-74
2022/10/19 03:25:11;;;;;;;23.20;10.93;;;;;;;;;;6184525;28;20277;-72
2022/10/19 03:28:12;;;;;;;20.87;10.97;;;;;;;;;;6187168;28;20707;-73
2022/10/19 03:31:12;;;;;;;22.65;10.48;;;;;;;;;;6172836;28;20522;-74
2022/10/19 03:34:12;;;;;;;20.50;9.30;;;;;;;;;;6176938;28;20030;-73
2022/10/19 03:37:14;;;;;;;16.63;9.47;;;;;;;;;;6186381;28;20015;-74
2022/10/19 03:40:14;;;;;;;18.80;10.75;;;;;;;;;;6187033;28;20480;-73
2022/10/19 03:43:14;;;;;;;18.23;9.63;;;;;;;;;;6177162;28;20050;-73
2022/10/19 03:46:14;;;;;;;18.30;10.25;;;;;;;;;;6188979;28;20514;-74
2022/10/19 03:49:15;;;;;;;19.60;11.17;;;;;;;;;;6184921;28;20027;-74
2022/10/19 03:52:16;;;;;;;22.23;11.65;;;;;;;;;;6176720;28;20027;-73
2022/10/19 03:55:16;;;;;;;21.80;10.63;;;;;;;;;;6189374;28;20010;-73
2022/10/19 03:58:16;;;;;;;20.77;10.77;;;;;;;;;;6178351;28;20146;-73
2022/10/19 04:01:18;;;;;;;17.67;10.73;;;;;;;;;;6173693;28;20014;-73
2022/10/19 04:04:18;;;;;;;;;;;;;;;;;;6175297;28;20258;-73
2022/10/19 04:07:19;;;;;;;20.50;11.23;;;;;;;;;;6173339;28;19906;-73
2022/10/19 04:10:19;;;;;;;18.03;9.77;;;;;;;;;;6172473;28;20033;-73
2022/10/19 04:13:19;;;;;;;24.57;11.70;;;;;;;;;;6170712;28;20085;-73
2022/10/19 04:16:20;;;;;;;26.92;11.82;;;;;;;;;;6182021;28;20463;-73
2022/10/19 04:19:20;;;;;;;22.80;11.90;;;;;;;;;;6166390;28;20047;-73
2022/10/19 04:22:20;;;;;;;20.43;11.63;;;;;;;;;;6160341;28;20022;-73
2022/10/19 04:25:20;;;;;;;22.52;11.85;;;;;;;;;;6159658;28;20019;-73
2022/10/19 04:28:20;;;;;;;23.38;13.45;;;;;;;;;;6162341;28;20272;-74
2022/10/19 04:31:21;;;;;;;24.10;12.53;;;;;;;;;;6158079;28;20015;-74
2022/10/19 04:34:21;;;;;;;27.95;12.35;;;;;;;;;;6157518;28;20472;-74
2022/10/19 04:37:21;;;;;;;23.85;12.73;;;;;;;;;;6159519;28;20259;-74
2022/10/19 04:40:21;;;;;;;28.20;12.20;;;;;;;;;;6146387;28;20485;-74
2022/10/19 04:43:21;;;;;;;22.05;12.88;;;;;;;;;;6160287;28;20270;-74
2022/10/19 04:46:22;;;;;;;34.87;12.70;;;;;;;;;;6166303;28;20047;-74
2022/10/19 04:49:22;;;;;;;27.47;13.30;;;;;;;;;;6166652;28;20042;-74
2022/10/19 04:52:22;;;;;;;26.17;12.77;;;;;;;;;;6166922;28;20023;-74
2022/10/19 04:55:22;;;;;;;25.45;13.48;;;;;;;;;;6168260;28;20254;-75
2022/10/19 04:58:23;;;;;;;22.57;12.60;;;;;;;;;;6152238;28;20003;-74
2022/10/19 05:01:24;;;;;;;25.13;12.20;;;;;;;;;;6170433;28;20025;-74
2022/10/19 05:04:24;;;;;;;23.00;11.65;;;;;;;;;;6169097;28;20070;-74
2022/10/19 05:07:24;;;;;;;219.77;33.17;;;;;;;;;;6162190;28;20043;-74
2022/10/19 05:10:25;;;;;;;92.93;19.48;;;;;;;;;;6169196;28;20274;-74
2022/10/19 05:13:25;;;;;;;98.33;24.93;;;;;;;;;;6152659;28;20094;-74
2022/10/19 05:16:25;;;;;;;171.98;29.42;;;;;;;;;;6164907;28;20027;-73
2022/10/19 05:19:26;;;;;;;217.73;38.33;;;;;;;;;;6173708;28;20053;-75
2022/10/19 05:22:27;;;;;;;142.07;29.50;;;;;;;;;;6156377;28;20019;-73
2022/10/19 05:25:27;;;;;;;243.53;45.20;;;;;;;;;;6168447;28;20021;-74
2022/10/19 05:28:27;;;;;;;82.80;18.17;;;;;;;;;;6168424;28;20030;-74
2022/10/19 05:31:28;;;;;;;224.93;45.50;;;;;;;;;;6161558;28;20027;-74
2022/10/19 05:34:28;;;;;;;183.45;39.83;;;;;;;;;;6167487;28;20278;-74
2022/10/19 05:37:29;;;;;;;234.23;42.17;;;;;;;;;;6149825;28;20030;-74
2022/10/19 05:40:29;;;;;;;368.63;72.77;;;;;;;;;;6175257;28;20506;-74
2022/10/19 05:43:29;;;;;;;201.60;31.92;;;;;;;;;;6161727;28;20037;-73
2022/10/19 05:46:30;;;;;;;344.60;59.65;;;;;;;;;;6159342;28;20137;-74
2022/10/19 05:49:30;;;;;;;831.17;88.37;;;;;;;;;;6175767;28;20050;-74
2022/10/19 05:52:30;;;;;;;318.93;55.87;;;;;;;;;;6163092;28;20030;-74
2022/10/19 05:55:32;;;;;;;393.73;54.65;;;;;;;;;;6175411;28;20011;-75
2022/10/19 05:58:33;;;;;;;909.78;107.10;;;;;;;;;;6169655;28;20042;-75
2022/10/19 06:01:33;;;;;;;40.33;24.87;;;;;;;;;;6173487;28;20015;-75
2022/10/19 06:04:34;;;;;;;49.23;27.30;;;;;;;;;;6164842;28;20117;-75
2022/10/19 06:07:34;;;;;;;58.93;32.17;;;;;;;;;;6159958;28;20360;-75
2022/10/19 06:10:34;;;;;;;53.00;30.00;;;;;;;;;;6165298;28;20143;-73
2022/10/19 06:13:35;;;;;;;53.90;29.20;;;;;;;;;;6164956;28;20012;-73
2022/10/19 06:16:35;;;;;;;50.67;26.47;;;;;;;;;;6169860;28;20025;-74
2022/10/19 06:19:35;;;;;;;49.30;28.03;;;;;;;;;;6174979;28;20030;-73
2022/10/19 06:22:36;;;;;;;56.50;26.73;;;;;;;;;;6167900;28;20151;-72
2022/10/19 06:25:36;;;;;;;57.72;25.95;;;;;;;;;;6171015;28;20023;-72
2022/10/19 06:28:37;;;;;;;48.30;23.03;;;;;;;;;;6167319;28;20022;-73
2022/10/19 06:31:37;;;;;;;54.30;25.98;;;;;;;;;;6167359;28;20023;-73
2022/10/19 06:34:37;;;;;;;47.33;24.67;;;;;;;;;;6167547;28;20101;-72
2022/10/19 06:37:37;;;;;;;45.50;24.23;;;;;;;;;;6171612;28;20018;-73
2022/10/19 06:40:37;;;;;;;40.50;21.20;;;;;;;;;;6173822;28;20034;-73
2022/10/19 06:43:38;;;;;;;48.70;23.63;;;;;;;;;;6157744;28;20077;-72
2022/10/19 06:46:38;;;;;;;47.07;22.17;;;;;;;;;;6171196;28;20047;-72
2022/10/19 06:49:38;;;;;;;55.22;25.17;;;;;;;;;;6174612;28;20101;-71
2022/10/19 06:52:39;;;;;;;59.30;25.23;;;;;;;;;;6165943;28;20022;-73
2022/10/19 06:55:39;;;;;;;48.20;23.90;;;;;;;;;;6171400;28;20018;-72
2022/10/19 06:58:40;;;;;;;41.13;21.80;;;;;;;;;;6172433;28;20513;-73
2022/10/19 07:01:40;;;;;;;42.53;21.80;;;;;;;;;;6173104;28;20026;-72
2022/10/19 07:04:40;;;;;;;45.03;20.47;;;;;;;;;;6173343;28;20312;-72
2022/10/19 07:07:41;;;;;;;46.83;20.77;;;;;;;;;;6175430;28;20022;-73
2022/10/19 07:10:41;;;;;;;48.27;20.50;;;;;;;;;;6184305;28;20069;-73
2022/10/19 07:13:41;;;;;;;48.20;21.05;;;;;;;;;;6173864;28;20102;-73
2022/10/19 07:16:41;;;;;;;35.90;20.50;;;;;;;;;;6166285;28;20015;-72
2022/10/19 07:19:41;;;;;;;41.57;20.27;;;;;;;;;;6165384;28;20015;-72
2022/10/19 07:22:42;;;;;;;40.50;19.10;;;;;;;;;;6155751;28;20023;-72
2022/10/19 07:25:42;;;;;;;36.30;17.33;;;;;;;;;;6162492;28;20069;-73
2022/10/19 07:28:43;;;;;;;36.35;19.23;;;;;;;;;;6168522;28;20015;-72
2022/10/19 07:31:44;;;;;;;42.85;20.08;;;;;;;;;;6152954;28;20019;-73
2022/10/19 07:34:44;;;;;;;39.17;19.57;;;;;;;;;;6166623;28;20383;-72
2022/10/19 07:37:44;;;;;;;33.97;17.88;;;;;;;;;;6154840;28;20043;-72
2022/10/19 07:40:44;;;;;;;30.47;17.60;;;;;;;;;;6169256;28;20336;-72
2022/10/19 07:43:45;;;;;;;42.93;18.53;;;;;;;;;;6163953;28;20015;-72
2022/10/19 07:46:45;;;;;;;30.40;18.30;;;;;;;;;;6167134;28;20113;-72
2022/10/19 07:49:46;;;;;;;26.30;14.30;;;;;;;;;;6168222;28;20015;-72
2022/10/19 07:52:46;;;;;;;33.37;16.87;;;;;;;;;;6165742;28;20061;-72
2022/10/19 07:55:46;;;;;;;26.60;15.75;;;;;;;;;;6171594;28;20029;-73
2022/10/19 07:58:47;;;;;;;28.13;12.90;;;;;;;;;;6167521;28;20214;-72
2022/10/19 08:01:49;;;;;;;29.42;12.05;;;;;;;;;;6167398;28;20024;-72
2022/10/19 08:04:49;;;;;;;23.50;12.85;;;;;;;;;;6151184;28;20506;-71
2022/10/19 08:07:50;;;;;;;26.90;13.10;;;;;;;;;;6170736;28;20027;-71
2022/10/19 08:10:50;;;;;;;25.00;10.15;;;;;;;;;;6176466;28;20015;-72
2022/10/19 08:13:51;;;;;;;23.70;9.52;;;;;;;;;;6155854;28;20458;-72
2022/10/19 08:16:51;;;;;;;21.90;8.33;;;;;;;;;;6170773;28;20105;-72
2022/10/19 08:19:51;;;;;;;19.50;8.27;;;;;;;;;;6172558;28;20101;-72
2022/10/19 08:22:51;;;;;;;16.80;7.20;;;;;;;;;;6172192;28;20045;-72
2022/10/19 08:25:56;;;;;;;17.23;7.40;;;;;;;;;;6169399;28;20015;-72
2022/10/19 08:29:22;;;;;;;16.30;7.25;;;;;;;;;;6172566;28;20023;-71
2022/10/19 08:32:22;;;;;;;16.67;6.95;;;;;;;;;;6168124;28;20123;-72
2022/10/19 08:35:22;;;;;;;10.18;5.68;;;;;;;;;;6171147;28;20031;-72
2022/10/19 08:38:23;;;;;;;13.90;5.93;;;;;;;;;;6170594;28;20347;-71
2022/10/19 08:41:33;;;;;;;16.37;5.80;;;;;;;;;;6171619;28;20018;-72
2022/10/19 08:44:42;;;;;;;15.48;5.22;;;;;;;;;;6170944;28;20123;-72
2022/10/19 08:47:50;;;;;;;19.85;6.50;;;;;;;;;;6152811;28;20113;-72
2022/10/19 08:50:51;;;;;;;13.88;5.00;;;;;;;;;;6172234;28;20069;-72
2022/10/19 08:53:53;;;;;;;12.30;5.43;;;;;;;;;;6153651;28;20023;-71
2022/10/19 08:56:53;;;;;;;;;;;;;;;;;;6172615;28;20030;-72
2022/10/19 08:59:58;;;;;;;14.48;4.45;;;;;;;;;;6175915;28;19906;-71
2022/10/19 09:03:17;;;;;;;9.98;5.22;;;;;;;;;;6154605;28;20010;-72
2022/10/19 09:06:26;;;;;;;11.88;4.95;;;;;;;;;;6175381;28;20520;-71
2022/10/19 09:09:28;;;;;;;7.43;3.97;;;;;;;;;;6188349;28;20023;-72
2022/10/19 09:12:28;;;;;;;;;;;;;;;;;;6189470;28;20018;-72
2022/10/19 09:15:37;;;;;;;17.40;4.30;;;;;;;;;;6176335;28;19906;-72
2022/10/19 09:18:37;;;;;;;14.55;5.68;;;;;;;;;;6172466;28;20423;-71
2022/10/19 09:21:56;;;;;;;12.00;5.00;;;;;;;;;;6175867;28;20019;-71
2022/10/19 09:24:59;;;;;;;11.27;5.05;;;;;;;;;;6169562;28;20025;-71
2022/10/19 09:28:13;;;;;;;11.95;4.93;;;;;;;;;;6169962;28;20023;-71
2022/10/19 09:31:22;;;;;;;13.80;4.55;;;;;;;;;;6172454;28;20033;-71
2022/10/19 09:34:30;;;;;;;10.73;4.25;;;;;;;;;;6169053;28;20471;-71
2022/10/19 09:37:31;;;;;;;8.27;3.38;;;;;;;;;;6158628;28;20017;-72
2022/10/19 09:40:33;;;;;;;9.93;3.35;;;;;;;;;;6167358;28;20464;-71
2022/10/19 09:43:33;;;;;;;6.43;1.67;;;;;;;;;;6159893;28;20015;-71
2022/10/19 09:46:33;;;;;;;8.17;2.40;;;;;;;;;;6173502;28;20073;-72
2022/10/19 09:49:44;;;;;;;4.95;1.98;;;;;;;;;;6165468;28;20027;-72
2022/10/19 09:52:45;;;;;;;6.72;3.00;;;;;;;;;;6175756;28;20027;-72
2022/10/19 09:55:48;;;;;;;7.78;3.00;;;;;;;;;;6175161;28;20021;-72
2022/10/19 09:58:49;;;;;;;9.88;3.28;;;;;;;;;;6169893;28;20055;-72
2022/10/19 10:02:22;;;;;;;6.93;3.30;;;;;;;;;;6151351;28;20015;-72
2022/10/19 10:05:30;;;;;;;7.82;4.00;;;;;;;;;;6119721;28;20035;-71
2022/10/19 10:08:33;;;;;;;9.27;3.65;;;;;;;;;;6167968;28;20383;-71
2022/10/19 10:11:35;;;;;;;6.97;4.70;;;;;;;;;;6176793;28;20095;-71
2022/10/19 10:14:35;;;;;;;10.02;4.38;;;;;;;;;;6182552;28;20050;-71
2022/10/19 10:17:37;;;;;;;10.80;5.53;;;;;;;;;;6174853;28;20015;-71
2022/10/19 10:20:39;;;;;;;11.30;4.43;;;;;;;;;;6174129;28;20018;-71
2022/10/19 10:23:39;;;;;;;11.63;4.65;;;;;;;;;;6172171;28;20414;-71
2022/10/19 10:26:40;;;;;;;8.83;4.07;;;;;;;;;;6168314;28;20030;-75
2022/10/19 10:29:52;;;;;;;8.27;4.30;;;;;;;;;;6163140;28;20225;-72
2022/10/19 10:32:53;;;;;;;8.70;4.18;;;;;;;;;;6162879;28;20058;-72
2022/10/19 10:35:56;;;;;;;7.30;4.70;;;;;;;;;;6165440;28;20375;-72
2022/10/19 10:39:02;;;;;;;6.55;4.15;;;;;;;;;;6166114;28;20446;-72
2022/10/19 10:42:06;;;;;;;5.70;3.33;;;;;;;;;;6163254;28;20038;-71
2022/10/19 10:45:15;;;;;;;6.97;3.58;;;;;;;;;;6169373;28;20035;-71
2022/10/19 10:48:21;;;;;;;6.90;4.55;;;;;;;;;;6162915;28;20023;-71
2022/10/19 10:51:30;;;;;;;6.50;3.72;;;;;;;;;;6144971;28;20106;-71
2022/10/19 10:54:31;;;;;;;5.65;2.67;;;;;;;;;;6161092;28;20020;-71
2022/10/19 10:57:34;;;;;;;7.30;3.53;;;;;;;;;;6164874;28;20045;-72
2022/10/19 11:00:37;;;;;;;8.27;3.10;;;;;;;;;;6146529;28;20054;-71
2022/10/19 11:03:40;;;;;;;7.90;3.70;;;;;;;;;;6161675;28;20110;-71
2022/10/19 11:06:42;;;;;;;8.82;3.95;;;;;;;;;;6169943;28;20209;-71
2022/10/19 11:09:42;;;;;;;;;;;;;;;;;;6166905;28;20143;-71
2022/10/19 11:12:45;;;;;;;12.02;3.90;;;;;;;;;;6166496;28;19918;-71
2022/10/19 11:15:53;;;;;;;4.88;2.42;;;;;;;;;;6169251;28;20122;-72
2022/10/19 11:19:04;;;;;;;8.98;3.83;;;;;;;;;;6169127;28;20074;-72
2022/10/19 11:22:04;;;;;;;12.82;3.42;;;;;;;;;;6154870;28;20026;-71
2022/10/19 11:25:20;;;;;;;6.47;3.00;;;;;;;;;;6161840;28;20023;-72
2022/10/19 11:28:23;;;;;;;6.28;2.47;;;;;;;;;;6164155;28;20024;-71
2022/10/19 11:31:35;;;;;;;10.68;3.72;;;;;;;;;;6156985;28;20577;-71
2022/10/19 11:34:35;;;;;;;9.90;3.60;;;;;;;;;;6162159;28;20065;-71
2022/10/19 11:37:53;;;;;;;10.80;4.87;;;;;;;;;;6162329;28;20020;-72
2022/10/19 11:40:56;;;;;;;10.80;4.13;;;;;;;;;;6158879;28;20023;-72
2022/10/19 11:44:15;;;;;;;6.75;3.80;;;;;;;;;;6163673;28;20025;-72
2022/10/19 11:47:24;;;;;;;9.75;3.80;;;;;;;;;;6169559;28;20069;-71
2022/10/19 11:50:24;;;;;;;9.60;3.53;;;;;;;;;;6171230;28;20027;-71
2022/10/19 11:53:30;;;;;;;6.20;2.67;;;;;;;;;;6162845;28;20033;-71
2022/10/19 11:56:37;;;;;;;5.43;2.92;;;;;;;;;;6167080;28;20018;-71
2022/10/19 11:59:49;;;;;;;5.00;2.58;;;;;;;;;;6165448;28;20109;-71
2022/10/19 12:03:07;;;;;;;8.40;2.90;;;;;;;;;;6157600;28;20034;-71
2022/10/19 12:06:21;;;;;;;5.82;3.10;;;;;;;;;;6160110;28;20031;-71
2022/10/19 12:09:44;;;;;;;7.60;3.05;;;;;;;;;;6161230;28;20038;-73
2022/10/19 12:12:46;;;;;;;7.68;2.72;;;;;;;;;;6159696;28;20034;-73
2022/10/19 12:15:52;;;;;;;10.00;3.00;;;;;;;;;;6164186;28;20101;-72
2022/10/19 12:18:54;;;;;;;8.93;2.90;;;;;;;;;;6147453;28;20018;-72
2022/10/19 12:21:58;;;;;;;6.93;3.10;;;;;;;;;;6169789;28;20058;-72
2022/10/19 12:25:00;;;;;;;6.82;3.42;;;;;;;;;;6166368;28;20061;-73
2022/10/19 12:28:01;;;;;;;8.77;3.28;;;;;;;;;;6141813;28;20551;-73
2022/10/19 12:31:03;;;;;;;6.18;3.47;;;;;;;;;;6155034;28;20011;-73
2022/10/19 12:34:12;;;;;;;8.00;3.50;;;;;;;;;;6168258;28;20030;-73
2022/10/19 12:37:15;;;;;;;9.02;3.30;;;;;;;;;;6165776;28;20029;-73
2022/10/19 12:40:23;;;;;;;9.70;3.63;;;;;;;;;;6159728;28;20034;-73
2022/10/19 12:43:32;;;;;;;6.25;2.85;;;;;;;;;;6163516;28;20029;-72
2022/10/19 12:47:01;;;;;;;5.57;3.03;;;;;;;;;;6141538;28;20051;-73
2022/10/19 12:50:02;;;;;;;8.15;3.15;;;;;;;;;;6146574;28;20038;-73
2022/10/19 12:53:02;;;;;;;10.03;4.80;;;;;;;;;;6161493;28;20030;-73
2022/10/19 12:56:02;;;;;;;9.87;4.13;;;;;;;;;;6160397;28;20463;-72
2022/10/19 12:59:03;;;;;;;9.73;3.10;;;;;;;;;;6157763;28;20070;-72
2022/10/19 13:02:04;;;;;;;8.23;2.87;;;;;;;;;;6166249;28;20094;-72
2022/10/19 13:05:05;;;;;;;;;;;;;;;;;;6162308;28;20094;-72
2022/10/19 13:08:06;;;;;;;4.80;2.55;;;;;;;;;;6163945;28;19945;-72
2022/10/19 13:11:08;;;;;;;2.53;1.63;;;;;;;;;;6171002;28;20099;-73
2022/10/19 13:14:31;;;;;;;8.10;3.47;;;;;;;;;;6154757;28;20045;-73
2022/10/19 13:17:47;;;;;;;6.93;3.63;;;;;;;;;;6162679;28;20066;-73
2022/10/19 13:20:50;;;;;;;5.70;2.63;;;;;;;;;;6167329;28;20062;-73
2022/10/19 13:23:50;;;;;;;7.35;3.00;;;;;;;;;;6169446;28;20035;-72
2022/10/19 13:27:02;;;;;;;5.70;4.27;;;;;;;;;;6170025;28;20089;-72
2022/10/19 13:30:03;;;;;;;6.82;3.30;;;;;;;;;;6171492;28;20033;-72
2022/10/19 13:33:23;;;;;;;8.47;3.50;;;;;;;;;;6155758;28;20468;-73
2022/10/19 13:36:24;;;;;;;9.85;3.70;;;;;;;;;;6148081;28;20022;-72
2022/10/19 13:39:27;;;;;;;7.47;3.40;;;;;;;;;;6165544;28;20114;-72
2022/10/19 13:42:28;;;;;;;6.03;2.80;;;;;;;;;;6165579;28;20529;-73
2022/10/19 13:45:29;;;;;;;7.73;3.20;;;;;;;;;;6171937;28;20055;-73
2022/10/19 13:48:49;;;;;;;10.47;3.97;;;;;;;;;;6175263;28;20022;-73
2022/10/19 13:52:22;;;;;;;6.53;2.58;;;;;;;;;;6154427;28;20073;-73
2022/10/19 13:55:22;;;;;;;;;;;;;;;;;;6145202;28;20417;-73
2022/10/19 13:58:29;;;;;;;7.80;3.10;;;;;;;;;;6175127;28;19914;-73
2022/10/19 14:01:48;;;;;;;8.25;2.67;;;;;;;;;;6174227;28;20337;-73
2022/10/19 14:05:07;;;;;;;10.32;3.97;;;;;;;;;;6175404;28;20479;-73
2022/10/19 14:08:15;;;;;;;7.93;3.60;;;;;;;;;;6170539;28;20506;-73
2022/10/19 14:11:20;;;;;;;11.40;4.40;;;;;;;;;;6170254;28;20529;-73
2022/10/19 14:14:21;;;;;;;5.45;2.60;;;;;;;;;;6188672;28;20088;-73
2022/10/19 14:17:24;;;;;;;6.78;3.22;;;;;;;;;;6183676;28;20023;-74
2022/10/19 14:20:35;;;;;;;5.18;2.33;;;;;;;;;;6167776;28;20046;-73
2022/10/19 14:23:38;;;;;;;6.38;2.28;;;;;;;;;;6158323;28;20031;-73
2022/10/19 14:26:38;;;;;;;6.10;2.65;;;;;;;;;;6174342;28;20022;-73
2022/10/19 14:29:43;;;;;;;18.83;6.83;;;;;;;;;;6174147;28;20026;-73
2022/10/19 14:32:44;;;;;;;7.65;3.50;;;;;;;;;;6166776;28;20023;-73
2022/10/19 14:35:48;;;;;;;9.80;5.80;;;;;;;;;;6167454;28;20018;-73
2022/10/19 14:38:51;;;;;;;5.65;2.40;;;;;;;;;;6156805;28;20050;-72
2022/10/19 14:41:53;;;;;;;6.25;3.90;;;;;;;;;;6173189;28;20019;-72
2022/10/19 14:44:59;;;;;;;9.75;3.60;;;;;;;;;;6166093;28;20047;-73
2022/10/19 14:48:04;;;;;;;10.73;3.90;;;;;;;;;;6164788;28;20102;-73
2022/10/19 14:51:10;;;;;;;11.70;5.25;;;;;;;;;;6156376;28;20502;-73
2022/10/19 14:54:19;;;;;;;17.83;5.05;;;;;;;;;;6162624;28;20457;-73
2022/10/19 14:57:24;;;;;;;10.88;5.30;;;;;;;;;;6173606;28;20018;-73
2022/10/19 15:00:25;;;;;;;8.07;3.67;;;;;;;;;;6173875;28;20026;-73
2022/10/19 15:03:27;;;;;;;12.80;5.38;;;;;;;;;;6153842;28;20396;-72
2022/10/19 15:06:30;;;;;;;11.15;4.47;;;;;;;;;;6171845;28;20545;-73
2022/10/19 15:09:32;;;;;;;14.57;5.45;;;;;;;;;;6179029;28;20069;-73
2022/10/19 15:12:32;;;;;;;;;;;;;;;;;;6162424;28;20025;-73
2022/10/19 15:15:33;;;;;;;15.15;5.63;;;;;;;;;;6183639;28;19906;-73
2022/10/19 15:18:37;;;;;;;13.98;5.28;;;;;;;;;;6173334;28;20475;-72
2022/10/19 15:21:37;;;;;;;14.57;5.55;;;;;;;;;;6156532;28;20021;-72
2022/10/19 15:24:39;;;;;;;13.52;5.90;;;;;;;;;;6179678;28;20026;-74
2022/10/19 15:27:46;;;;;;;12.82;5.75;;;;;;;;;;6155196;28;20023;-72
2022/10/19 15:30:56;;;;;;;8.10;3.10;;;;;;;;;;6154079;28;20062;-73
2022/10/19 15:33:58;;;;;;;7.22;4.53;;;;;;;;;;6159807;28;20066;-73
2022/10/19 15:36:59;;;;;;;6.78;3.45;;;;;;;;;;6162089;28;20073;-72
2022/10/19 15:40:07;;;;;;;10.20;3.60;;;;;;;;;;6156153;28;20023;-74
2022/10/19 15:43:26;;;;;;;16.75;7.30;;;;;;;;;;6156805;28;20014;-73
2022/10/19 15:46:29;;;;;;;9.38;4.30;;;;;;;;;;6153427;28;20054;-73
2022/10/19 15:49:41;;;;;;;6.50;3.80;;;;;;;;;;6160645;28;20034;-73
2022/10/19 15:52:42;;;;;;;13.00;5.75;;;;;;;;;;6167153;28;20039;-74
2022/10/19 15:55:42;;;;;;;13.48;5.75;;;;;;;;;;6154393;28;20010;-73
2022/10/19 15:58:42;;;;;;;9.43;4.80;;;;;;;;;;6156436;28;20055;-73
2022/10/19 16:01:43;;;;;;;10.55;4.95;;;;;;;;;;6156557;28;20072;-72
2022/10/19 16:04:43;;;;;;;15.67;6.17;;;;;;;;;;6161389;28;20082;-72
2022/10/19 16:07:43;;;;;;;11.40;5.40;;;;;;;;;;6154582;28;20019;-72
2022/10/19 16:10:44;;;;;;;11.17;6.67;;;;;;;;;;6160567;28;20263;-73
2022/10/19 16:13:44;;;;;;;15.65;6.50;;;;;;;;;;6159738;28;20022;-73
2022/10/19 16:16:44;;;;;;;11.60;5.77;;;;;;;;;;6159501;28;20023;-73
2022/10/19 16:19:45;;;;;;;14.50;6.63;;;;;;;;;;6157134;28;20107;-73
2022/10/19 16:22:46;;;;;;;15.47;8.43;;;;;;;;;;6160871;28;20018;-73
2022/10/19 16:25:46;;;;;;;13.35;5.75;;;;;;;;;;6161941;28;20022;-74
2022/10/19 16:28:47;;;;;;;9.43;5.40;;;;;;;;;;6167793;28;20489;-74
2022/10/19 16:31:47;;;;;;;11.48;4.80;;;;;;;;;;6171548;28;20023;-73
2022/10/19 16:34:47;;;;;;;11.07;6.18;;;;;;;;;;6144357;28;20022;-74
2022/10/19 16:37:48;;;;;;;8.52;4.47;;;;;;;;;;6156488;28;20074;-73
2022/10/19 16:40:48;;;;;;;11.30;5.67;;;;;;;;;;6162406;28;20058;-74
2022/10/19 16:43:52;;;;;;;11.65;5.68;;;;;;;;;;6147618;28;20053;-73
2022/10/19 16:46:54;;;;;;;16.20;6.50;;;;;;;;;;6167782;28;20042;-74
2022/10/19 16:49:54;;;;;;;;;;;;;;;;;;6161102;28;20015;-73
2022/10/19 16:53:05;;;;;;;11.70;6.20;;;;;;;;;;6156326;28;19922;-73
2022/10/19 16:56:06;;;;;;;14.13;6.38;;;;;;;;;;6166378;28;20510;-73
2022/10/19 16:59:06;;;;;;;15.30;6.30;;;;;;;;;;6172249;28;20023;-73
2022/10/19 17:02:08;;;;;;;10.43;5.23;;;;;;;;;;6171971;28;20499;-73
2022/10/19 17:05:08;;;;;;;16.40;6.85;;;;;;;;;;6171714;28;20266;-73
2022/10/19 17:08:10;;;;;;;23.40;9.53;;;;;;;;;;6169089;28;20073;-74
2022/10/19 17:11:12;;;;;;;30.65;11.80;;;;;;;;;;6165821;28;20507;-74
2022/10/19 17:14:12;;;;;;;;;;;;;;;;;;6166892;28;20142;-73
2022/10/19 17:17:13;;;;;;;35.22;13.25;;;;;;;;;;6170143;28;19906;-73
2022/10/19 17:20:14;;;;;;;34.27;12.90;;;;;;;;;;6176550;28;20046;-73
2022/10/19 17:23:14;;;;;;;36.72;15.70;;;;;;;;;;6177056;28;20026;-73
2022/10/19 17:26:18;;;;;;;22.33;11.20;;;;;;;;;;6171671;28;20054;-74
2022/10/19 17:29:18;;;;;;;17.15;8.35;;;;;;;;;;6169207;28;20501;-74
2022/10/19 17:32:21;;;;;;;16.85;8.95;;;;;;;;;;6164878;28;20061;-73
2022/10/19 17:35:22;;;;;;;15.10;9.55;;;;;;;;;;6167320;28;20022;-73
2022/10/19 17:38:22;;;;;;;17.95;8.70;;;;;;;;;;6164888;28;20058;-73
2022/10/19 17:41:22;;;;;;;17.55;7.50;;;;;;;;;;6163307;28;20670;-73
2022/10/19 17:44:22;;;;;;;17.83;8.02;;;;;;;;;;6165754;28;20314;-73
2022/10/19 17:47:22;;;;;;;19.88;11.30;;;;;;;;;;6158745;28;20042;-74
2022/10/19 17:50:23;;;;;;;29.27;15.20;;;;;;;;;;6176657;28;20431;-73
2022/10/19 17:53:23;;;;;;;25.83;14.03;;;;;;;;;;6178906;28;20045;-74
2022/10/19 17:56:26;;;;;;;25.02;15.48;;;;;;;;;;6174595;28;20050;-73
2022/10/19 17:59:26;;;;;;;23.98;13.57;;;;;;;;;;6150537;28;20365;-74